Flight Track Log - Related Links

Times and Time Zones

All times are in EDT time to prevent confusion due to time zone crossing. See the N57AM flight status page for this flight to view local times or setup timezone preferences in your user account.

Time Position Orientation Groundspeed Altitude Reporting Facility
EDT Latitude Longitude Course Direction KTS MPH feet Rate Location/Type
Sun 01:22:02 PM 38.9167 -77.4333 218° Southwest 126 145 1,100  Level Potomac TRACON
Sun 01:22:56 PM 38.8667 -77.4333 180° South 138 159 1,700 626 Climbing Potomac TRACON
Sun 01:23:57 PM 38.8333 -77.4333 180° South 138 159 2,300 571 Climbing Potomac TRACON
Sun 01:25:02 PM 38.8000 -77.4500 201° Southwest 140 161 2,900 480 Climbing Potomac TRACON
Sun 01:26:02 PM 38.7667 -77.4833 218° Southwest 134 154 3,300 400 Climbing Potomac TRACON
Sun 01:27:00 PM 38.7930 -77.6570 218° Southwest  Level FlightAware
Sun 01:27:02 PM 38.7500 -77.5167 237° Southwest 136 157 3,700  Level Potomac TRACON
Sun 01:28:02 PM 38.7333 -77.5667 247° West 130 150 4,200 496 Climbing Potomac TRACON
Sun 01:29:03 PM 38.7167 -77.6000 237° Southwest 122 140 4,700 446 Climbing Potomac TRACON
Sun 01:30:03 PM 38.7000 -77.6333 237° Southwest 126 145 5,100 368 Climbing Potomac TRACON
Sun 01:30:57 PM 38.7000 -77.6833 270° West 123 142 5,400 211 Climbing Potomac TRACON
Sun 01:31:57 PM 38.6833 -77.7167 237° Southwest 126 145 5,500 100 Climbing Potomac TRACON
Sun 01:32:57 PM 38.6667 -77.7667 247° West 129 148 5,600 150 Climbing Potomac TRACON
Sun 01:33:57 PM 38.6500 -77.8000 237° Southwest 132 152 5,800 200 Climbing Potomac TRACON
Sun 01:34:57 PM 38.6500 -77.8500 270° West 140 161 6,000 300 Climbing Potomac TRACON
Sun 01:35:57 PM 38.6167 -77.9000 230° Southwest 155 178 6,400 350 Climbing Potomac TRACON
Sun 01:36:57 PM 38.6000 -77.9333 237° Southwest 145 167 6,700 200 Climbing Potomac TRACON
Sun 01:37:57 PM 38.5833 -77.9833 247° West 146 168 6,800 200 Climbing Potomac TRACON
Sun 01:38:57 PM 38.5500 -78.0167 218° Southwest 131 151 7,100 300 Climbing Potomac TRACON
Sun 01:39:57 PM 38.5333 -78.0500 237° Southwest 130 150 7,400 347 Climbing Potomac TRACON
Sun 01:40:58 PM 38.5167 -78.0833 237° Southwest 130 150 7,800 298 Climbing Potomac TRACON
Sun 01:41:58 PM 38.4833 -78.1333 230° Southwest 146 168 8,000 100 Climbing Potomac TRACON
Sun 01:42:58 PM 38.4667 -78.1667 237° Southwest 157 181 8,000 -50 Level Potomac TRACON
Sun 01:43:58 PM 38.4333 -78.2167 230° Southwest 151 174 7,900 -50 Descending Potomac TRACON
Sun 01:44:58 PM 38.4167 -78.2500 237° Southwest 146 168 7,900 100 Level Potomac TRACON
Sun 01:45:58 PM 38.3833 -78.3000 230° Southwest 151 174 8,100  Climbing Potomac TRACON
Sun 01:46:59 PM 38.3667 -78.3333 237° Southwest 158 182 7,900 -50 Descending Potomac TRACON
Sun 01:47:59 PM 38.3333 -78.3833 230° Southwest 151 174 8,000  Climbing Potomac TRACON
Sun 01:48:59 PM 38.3167 -78.4167 237° Southwest 143 165 7,900  Descending Potomac TRACON
Sun 01:50:00 PM 38.2833 -78.4667 230° Southwest 142 163 8,000  Climbing Potomac TRACON
Sun 01:51:00 PM 38.2667 -78.5000 238° Southwest 147 169 7,900  Descending Potomac TRACON
Sun 01:52:01 PM 38.2333 -78.5500 230° Southwest 150 173 8,000  Climbing Potomac TRACON
Sun 01:53:01 PM 38.2167 -78.5833 238° Southwest 153 176 7,900 -50 Descending Potomac TRACON
Sun 01:54:01 PM 38.1833 -78.6167 218° Southwest 147 169 7,900 50 Level Potomac TRACON
Sun 01:55:01 PM 38.1667 -78.6667 247° West 137 158 8,000 50 Climbing Potomac TRACON
Sun 01:56:01 PM 38.1333 -78.7000 218° Southwest 147 169 8,000 -50 Level Potomac TRACON
Sun 01:57:02 PM 38.1000 -78.7333 218° Southwest 157 181 7,900  Descending Potomac TRACON
Sun 01:58:02 PM 38.0833 -78.7667 238° Southwest 148 170 8,000  Climbing Potomac TRACON
Sun 01:59:08 PM 38.0333 -78.8000 208° Southwest 158 182 7,900  Descending Potomac TRACON
Sun 02:00:08 PM 38.0167 -78.8333 238° Southwest 147 169 8,000 100 Climbing Potomac TRACON
Sun 02:01:08 PM 37.9833 -78.8833 230° Southwest 145 167 8,100 100 Climbing Potomac TRACON
Sun 02:02:08 PM 37.9500 -78.9167 218° Southwest 147 169 8,200 50 Climbing Potomac TRACON
Sun 02:03:08 PM 37.9167 -78.9333 202° Southwest 135 155 8,200 126 Level Potomac TRACON
Sun 02:03:43 PM 37.9133 -78.9556 259° West 161 185 8,400 438 Climbing Washington Center
Sun 02:04:44 PM 37.8833 -78.9858 219° Southwest 141 162 8,900 446 Climbing Washington Center
Sun 02:05:44 PM 37.8575 -79.0111 218° Southwest 135 155 9,300 298 Climbing Washington Center
Sun 02:06:45 PM 37.8275 -79.0386 216° Southwest 135 155 9,500 150 Climbing Washington Center
Sun 02:07:44 PM 37.7997 -79.0661 218° Southwest 135 155 9,600 252 Climbing Washington Center
Sun 02:08:44 PM 37.7739 -79.0914 218° Southwest 135 155 10,000 198 Climbing Washington Center
Sun 02:09:45 PM 37.7358 -79.1078 199° South 135 155 10,000  Level Washington Center
Sun 02:10:43 PM 37.6939 -79.1217 195° South 153 176 10,000  Level Washington Center
Sun 02:11:44 PM 37.6514 -79.1408 200° South 159 183 10,000 49 Level Washington Center
Sun 02:12:45 PM 37.6053 -79.1542 193° South 159 183 10,100 50 Climbing Washington Center
Sun 02:13:45 PM 37.5631 -79.1681 195° South 159 183 10,100 -50 Level Washington Center
Sun 02:14:44 PM 37.5208 -79.1844 197° South 166 191 10,000 -101 Descending Washington Center
Sun 02:15:44 PM 37.4786 -79.1981 194° South 166 191 9,900  Descending Washington Center
Sun 02:16:45 PM 37.4389 -79.2092 193° South 166 191 10,000 50 Climbing Washington Center
Sun 02:17:45 PM 37.3964 -79.2281 199° South 166 191 10,000  Level Washington Center
Sun 02:18:46 PM 37.3542 -79.2444 197° South 166 191 10,000  Level Washington Center
Sun 02:19:43 PM 37.3100 -79.2606 196° South 166 191 10,000  Level Washington Center
Sun 02:20:43 PM 37.2656 -79.2767 196° South 166 191 10,000 -50 Level Washington Center
Sun 02:21:44 PM 37.2314 -79.3092 217° Southwest 160 184 9,900  Descending Washington Center
Sun 02:22:44 PM 37.1931 -79.3306 204° Southwest 160 184 10,000 50 Climbing Washington Center
Sun 02:23:45 PM 37.1567 -79.3575 211° Southwest 160 184 10,000  Level Washington Center
Sun 02:24:43 PM 37.1286 -79.3875 220° Southwest 160 184 10,000  Level Washington Center
Sun 02:25:43 PM 37.0964 -79.4197 219° Southwest 155 178 10,000  Level Washington Center
Sun 02:26:44 PM 37.0639 -79.4519 218° Southwest 155 178 10,000  Level Washington Center
Sun 02:27:44 PM 37.0317 -79.4867 221° Southwest 155 178 10,000  Level Washington Center
Sun 02:28:45 PM 37.0014 -79.5217 223° Southwest 150 173 10,000  Level Washington Center
Sun 02:29:45 PM 36.9708 -79.5564 222° Southwest 150 173 10,000  Level Washington Center
Sun 02:30:43 PM 36.9428 -79.5889 223° Southwest 145 167 10,000  Level Washington Center
Sun 02:31:43 PM 36.9144 -79.6211 222° Southwest 145 167 10,000  Level Washington Center
Sun 02:32:44 PM 36.8842 -79.6558 223° Southwest 145 167 10,000  Level Washington Center
Sun 02:33:45 PM 36.8536 -79.6906 222° Southwest 145 167 10,000  Level Washington Center
Sun 02:35:00 PM 36.8148 -79.7306 220° Southwest  Level FlightAware
Sun 02:42:00 PM 36.5988 -79.9574 221° Southwest  Level FlightAware
Sun 02:43:00 PM 36.5685 -79.9904 221° Southwest  Level FlightAware
Sun 02:44:00 PM 36.5382 -80.0234 221° Southwest  Level FlightAware
Sun 02:45:00 PM 36.5079 -80.0564 221° Southwest  Level FlightAware
Sun 02:46:00 PM 36.4769 -80.0881 219° Southwest  Level FlightAware
Sun 02:47:00 PM 36.4459 -80.1199 219° Southwest  Level FlightAware
Sun 02:48:00 PM 36.4148 -80.1516 219° Southwest  Level FlightAware
Sun 02:49:00 PM 36.3841 -80.1840 221° Southwest  Level FlightAware
Sun 02:50:00 PM 36.3539 -80.2169 221° Southwest  Level FlightAware

Login

Don't have an account? Register now (free) for customized features, flight alerts, and more!